Time;durP1;ratioP1;P1;durP2;ratioP2;P2;SDS_P1;SDS_P2;PMS_P1;PMS_P2;Temp;Humidity;BMP_temperature;BMP_pressure;BME280_temperature;BME280_humidity;BME280_pressure;Samples;Min_cycle;Max_cycle;Signal;HPM_P1;HPM_P2
2022/05/02 00:00:46;;;;;;;9.75;4.63;;;13.20;99.90;;;;;;5013795;28;20125;-63
2022/05/02 00:03:12;;;;;;;7.78;5.03;;;13.10;99.90;;;;;;5031316;28;20033;-64
2022/05/02 00:05:39;;;;;;;8.15;4.95;;;13.00;99.90;;;;;;5030253;28;20399;-63
2022/05/02 00:08:05;;;;;;;7.97;4.70;;;13.00;99.90;;;;;;5013368;28;20041;-64
2022/05/02 00:10:31;;;;;;;5.93;4.63;;;13.00;99.90;;;;;;5012959;28;20029;-63
2022/05/02 00:12:57;;;;;;;11.40;4.78;;;12.90;99.90;;;;;;5014162;28;20386;-65
2022/05/02 00:15:23;;;;;;;6.43;4.95;;;12.90;99.90;;;;;;5030875;28;20493;-65
2022/05/02 00:17:58;;;;;;;7.18;5.07;;;12.80;99.90;;;;;;5013964;28;20029;-63
2022/05/02 00:20:28;;;;;;;8.43;4.60;;;12.80;99.90;;;;;;5031282;28;20057;-64
2022/05/02 00:22:56;;;;;;;9.25;4.72;;;12.80;99.90;;;;;;5031247;28;20033;-63
2022/05/02 00:25:21;;;;;;;8.45;4.60;;;12.70;99.90;;;;;;5030388;28;20036;-64
2022/05/02 00:27:48;;;;;;;11.50;5.38;;;12.80;99.90;;;;;;5035039;28;20453;-66
2022/05/02 00:30:15;;;;;;;7.65;4.75;;;12.80;99.90;;;;;;5035416;28;20088;-64
2022/05/02 00:32:41;;;;;;;8.38;5.70;;;12.60;99.90;;;;;;5034706;28;20029;-65
2022/05/02 00:35:08;;;;;;;12.40;5.88;;;12.60;99.90;;;;;;5017816;28;20029;-63
2022/05/02 00:37:35;;;;;;;14.45;5.13;;;12.60;99.90;;;;;;5035231;28;20379;-63
2022/05/02 00:40:00;;;;;;;8.40;4.60;;;12.60;99.90;;;;;;5036049;28;20048;-63
2022/05/02 00:42:26;;;;;;;11.98;5.72;;;12.70;99.90;;;;;;5017410;28;20026;-64
2022/05/02 00:44:52;;;;;;;8.43;5.68;;;12.50;99.90;;;;;;5018278;28;20037;-64
2022/05/02 00:47:20;;;;;;;9.73;4.97;;;12.60;99.90;;;;;;5034957;28;20060;-63
2022/05/02 00:49:49;;;;;;;9.52;6.15;;;12.60;99.90;;;;;;5035190;28;20530;-63
2022/05/02 00:52:15;;;;;;;9.48;5.05;;;12.50;99.90;;;;;;5035113;28;20025;-63
2022/05/02 00:54:42;;;;;;;7.95;5.07;;;12.50;99.90;;;;;;5017057;28;20156;-64
2022/05/02 00:57:10;;;;;;;9.82;4.97;;;12.40;99.90;;;;;;5035080;28;20042;-64
2022/05/02 00:59:37;;;;;;;7.70;5.00;;;12.30;99.90;;;;;;5034148;28;20053;-65
2022/05/02 01:02:04;;;;;;;7.28;5.03;;;12.20;99.90;;;;;;5034743;28;20025;-63
2022/05/02 01:04:30;;;;;;;8.25;5.20;;;12.30;99.90;;;;;;5034169;28;20029;-64
2022/05/02 01:07:19;;;;;;;8.73;6.05;;;12.30;99.90;;;;;;5034688;28;20036;-64
2022/05/02 01:09:50;;;;;;;6.22;4.80;;;12.20;99.90;;;;;;5033959;28;20033;-66
2022/05/02 01:12:21;;;;;;;9.02;5.68;;;12.20;99.90;;;;;;5034877;28;20029;-64
2022/05/02 01:14:50;;;;;;;9.77;5.57;;;12.20;99.90;;;;;;5034813;28;20040;-63
2022/05/02 01:17:16;;;;;;;7.28;4.78;;;12.30;99.90;;;;;;5016673;28;20035;-63
2022/05/02 01:19:43;;;;;;;10.63;4.90;;;12.30;99.90;;;;;;5033895;28;20322;-64
2022/05/02 01:22:09;;;;;;;8.73;5.40;;;12.40;99.90;;;;;;5034040;28;20057;-64
2022/05/02 01:24:38;;;;;;;7.90;5.50;;;12.20;99.90;;;;;;5033994;28;20033;-65
2022/05/02 01:27:06;;;;;;;7.38;4.72;;;12.20;99.90;;;;;;5034713;28;20376;-64
2022/05/02 01:29:33;;;;;;;7.72;4.68;;;12.30;99.90;;;;;;5033797;28;20034;-65
2022/05/02 01:32:00;;;;;;;6.25;5.55;;;12.20;99.90;;;;;;5034133;28;20021;-64
2022/05/02 01:34:26;;;;;;;10.13;6.10;;;12.30;99.90;;;;;;5033609;28;20030;-65
2022/05/02 01:36:51;;;;;;;10.75;5.28;;;12.40;99.90;;;;;;5034057;28;20088;-64
2022/05/02 01:39:17;;;;;;;10.80;5.20;;;12.20;99.90;;;;;;5034053;28;20051;-64
2022/05/02 01:41:43;;;;;;;7.20;5.50;;;12.10;99.90;;;;;;5033345;28;20033;-65
2022/05/02 01:44:08;;;;;;;9.85;5.03;;;12.00;99.90;;;;;;5033938;28;20029;-64
2022/05/02 01:46:34;;;;;;;9.88;4.70;;;12.00;99.90;;;;;;5033228;28;20025;-65
2022/05/02 01:49:00;;;;;;;5.65;4.68;;;12.10;99.90;;;;;;5016144;28;20386;-64
2022/05/02 01:51:25;;;;;;;7.80;5.65;;;12.00;99.90;;;;;;5015133;28;20403;-63
2022/05/02 01:53:51;;;;;;;8.85;5.45;;;12.00;99.90;;;;;;5033463;28;20090;-64
2022/05/02 01:56:17;;;;;;;10.75;5.55;;;12.00;99.90;;;;;;5033483;28;20467;-64
2022/05/02 01:58:42;;;;;;;7.90;5.43;;;12.00;99.90;;;;;;5032978;28;20025;-63
2022/05/02 02:01:08;;;;;;;7.68;5.05;;;12.00;99.90;;;;;;5033835;28;20049;-64
2022/05/02 02:03:34;;;;;;;10.60;5.18;;;12.00;99.90;;;;;;5033154;28;20025;-66
2022/05/02 02:06:00;;;;;;;7.60;4.93;;;12.00;99.90;;;;;;5033553;28;20424;-63
2022/05/02 02:08:33;;;;;;;8.15;5.25;;;11.80;99.90;;;;;;5015068;28;20034;-66
2022/05/02 02:11:09;;;;;;;7.50;5.03;;;11.70;99.90;;;;;;5033324;28;20033;-64
2022/05/02 02:13:36;;;;;;;10.05;5.55;;;11.80;99.90;;;;;;5033149;28;20036;-64
2022/05/02 02:16:06;;;;;;;6.20;5.60;;;11.90;99.90;;;;;;5032964;28;20428;-64
2022/05/02 02:18:32;;;;;;;6.80;5.28;;;11.90;99.90;;;;;;5032714;28;20030;-63
2022/05/02 02:20:58;;;;;;;10.57;5.28;;;11.90;99.90;;;;;;5032888;28;20072;-64
2022/05/02 02:23:24;;;;;;;6.97;5.50;;;11.90;99.90;;;;;;5033361;28;20032;-64
2022/05/02 02:25:50;;;;;;;10.40;6.10;;;11.90;99.90;;;;;;5032783;28;20029;-64
2022/05/02 02:28:17;;;;;;;9.75;5.85;;;11.90;99.90;;;;;;5033469;28;20033;-64
2022/05/02 02:30:43;;;;;;;10.20;5.38;;;11.80;99.90;;;;;;5032494;28;20033;-63
2022/05/02 02:33:09;;;;;;;11.10;5.10;;;11.80;99.90;;;;;;5015124;28;20313;-64
2022/05/02 02:35:35;;;;;;;7.85;4.97;;;11.80;99.90;;;;;;5014628;28;20036;-64
2022/05/02 02:38:02;;;;;;;6.00;5.15;;;11.80;99.90;;;;;;5015106;28;20037;-64
2022/05/02 02:40:28;;;;;;;14.20;4.80;;;11.80;99.90;;;;;;4998219;28;20040;-64
2022/05/02 02:42:54;;;;;;;10.15;5.95;;;11.80;99.90;;;;;;5033061;28;20487;-64
2022/05/02 02:45:19;;;;;;;7.57;5.15;;;11.90;99.90;;;;;;5015271;28;20022;-63
2022/05/02 02:47:45;;;;;;;11.30;5.65;;;11.90;99.90;;;;;;5014708;28;20052;-63
2022/05/02 02:50:11;;;;;;;8.18;5.55;;;11.90;99.90;;;;;;5032423;28;20045;-66
2022/05/02 02:52:37;;;;;;;9.10;5.75;;;12.00;99.90;;;;;;5014984;28;20053;-63
2022/05/02 02:55:03;;;;;;;9.05;5.97;;;12.00;99.90;;;;;;5033117;28;20501;-65
2022/05/02 02:57:29;;;;;;;6.65;5.03;;;11.90;99.90;;;;;;5032267;28;20037;-65
2022/05/02 02:59:54;;;;;;;11.63;5.47;;;11.90;99.90;;;;;;5032870;28;20103;-63
2022/05/02 03:02:21;;;;;;;7.68;5.10;;;11.90;99.90;;;;;;5032752;28;20025;-64
2022/05/02 03:07:31;;;;;;;7.80;5.35;;;11.90;99.90;;;;;;5031623;28;20079;-65
2022/05/02 03:09:57;;;;;;;6.20;5.32;;;11.90;99.90;;;;;;5032130;28;20436;-64
2022/05/02 03:12:23;;;;;;;6.18;4.95;;;11.90;99.90;;;;;;5032621;28;20398;-64
2022/05/02 03:14:49;;;;;;;9.50;4.90;;;12.00;99.90;;;;;;5031721;28;20029;-63
2022/05/02 03:17:14;;;;;;;8.75;5.45;;;12.00;99.90;;;;;;5014589;28;20025;-63
2022/05/02 03:19:40;;;;;;;7.68;5.45;;;12.00;99.90;;;;;;5013848;28;20378;-63
2022/05/02 03:22:06;;;;;;;9.13;5.55;;;11.90;99.90;;;;;;5032380;28;20221;-63
2022/05/02 03:24:32;;;;;;;10.93;5.40;;;11.90;99.90;;;;;;5031861;28;20040;-63
2022/05/02 03:26:58;;;;;;;10.30;5.93;;;11.90;99.90;;;;;;5032062;28;20030;-64
2022/05/02 03:29:24;;;;;;;12.45;5.55;;;11.80;99.90;;;;;;5014358;28;20030;-64
2022/05/02 03:31:50;;;;;;;8.52;6.68;;;11.80;99.90;;;;;;5013807;28;20033;-64
2022/05/02 03:34:15;;;;;;;6.63;5.25;;;11.70;99.90;;;;;;5032636;28;20029;-63
2022/05/02 03:36:41;;;;;;;8.70;5.95;;;11.70;99.90;;;;;;5031419;28;20026;-64
2022/05/02 03:39:07;;;;;;;7.80;5.55;;;11.60;99.90;;;;;;5032364;28;20080;-65
2022/05/02 03:41:33;;;;;;;8.00;6.28;;;11.70;99.90;;;;;;5015412;28;20079;-65
2022/05/02 03:43:58;;;;;;;8.10;5.60;;;11.60;99.90;;;;;;5034741;28;20025;-66
2022/05/02 03:46:25;;;;;;;10.73;5.50;;;11.70;99.90;;;;;;5018561;28;20482;-65
2022/05/02 03:48:51;;;;;;;8.35;6.07;;;11.70;99.90;;;;;;5034454;28;20498;-64
2022/05/02 03:51:17;;;;;;;9.20;5.57;;;11.60;99.90;;;;;;5032220;28;20052;-64
2022/05/02 03:53:42;;;;;;;6.63;5.72;;;11.70;99.90;;;;;;5013874;28;20033;-64
2022/05/02 03:56:08;;;;;;;7.70;5.65;;;11.70;99.90;;;;;;5032305;28;20139;-63
2022/05/02 03:58:34;;;;;;;12.07;5.60;;;11.60;99.90;;;;;;5031736;28;20036;-66
2022/05/02 04:00:59;;;;;;;7.63;5.50;;;11.70;99.90;;;;;;5015292;28;20043;-64
2022/05/02 04:03:25;;;;;;;14.60;6.32;;;11.70;99.90;;;;;;5014836;28;20183;-64
2022/05/02 04:05:51;;;;;;;9.45;6.40;;;11.70;99.90;;;;;;5014715;28;20321;-65
2022/05/02 04:08:16;;;;;;;9.10;5.90;;;11.60;99.90;;;;;;5032722;28;20490;-64
2022/05/02 04:10:42;;;;;;;10.18;6.50;;;11.70;99.90;;;;;;5032112;28;20044;-64
2022/05/02 04:13:09;;;;;;;11.75;6.55;;;11.60;99.90;;;;;;5032313;28;20029;-64
2022/05/02 04:15:35;;;;;;;10.48;6.18;;;11.60;99.90;;;;;;5031675;28;20028;-64
2022/05/02 04:18:00;;;;;;;7.75;5.90;;;11.60;99.90;;;;;;5032175;28;20034;-64
2022/05/02 04:20:26;;;;;;;8.48;6.18;;;11.60;99.90;;;;;;5031797;28;20052;-64
2022/05/02 04:22:52;;;;;;;7.90;6.10;;;11.50;99.90;;;;;;5031419;28;20105;-64
2022/05/02 04:25:19;;;;;;;11.18;6.20;;;11.50;99.90;;;;;;5032467;28;20471;-64
2022/05/02 04:27:45;;;;;;;12.52;7.45;;;11.60;99.90;;;;;;5031871;28;20022;-63
2022/05/02 04:30:11;;;;;;;9.45;5.47;;;11.60;99.90;;;;;;5032357;28;20032;-64
2022/05/02 04:32:37;;;;;;;8.32;6.05;;;11.60;99.90;;;;;;5031942;28;20033;-64
2022/05/02 04:35:06;;;;;;;9.57;5.97;;;11.50;99.90;;;;;;5014359;28;20034;-65
2022/05/02 04:37:32;;;;;;;25.17;7.13;;;11.50;99.90;;;;;;5031955;28;20033;-68
2022/05/02 04:39:58;;;;;;;12.32;5.88;;;11.50;99.90;;;;;;5031890;28;20036;-64
2022/05/02 04:42:24;;;;;;;6.70;5.25;;;11.50;99.90;;;;;;5032388;28;20022;-64
2022/05/02 04:44:49;;;;;;;9.70;5.65;;;11.60;99.90;;;;;;5013608;28;20029;-64
2022/05/02 04:47:15;;;;;;;10.18;6.65;;;11.60;99.90;;;;;;5031468;28;20032;-66
2022/05/02 04:49:41;;;;;;;9.10;6.35;;;11.60;99.90;;;;;;5030742;28;20029;-65
2022/05/02 04:52:07;;;;;;;14.57;6.57;;;11.60;99.90;;;;;;5013958;28;20516;-64
2022/05/02 04:54:32;;;;;;;10.95;6.45;;;11.70;99.90;;;;;;5014599;28;20071;-64
2022/05/02 04:57:01;;;;;;;10.02;5.80;;;11.70;99.90;;;;;;5031727;28;20471;-67
2022/05/02 04:59:27;;;;;;;14.85;6.63;;;11.70;99.90;;;;;;5014661;28;20048;-65
2022/05/02 05:01:52;;;;;;;8.82;6.13;;;11.70;99.90;;;;;;5031646;28;20468;-64
2022/05/02 05:04:18;;;;;;;11.95;5.82;;;11.70;99.90;;;;;;5032144;28;20471;-65
2022/05/02 05:06:44;;;;;;;10.70;6.32;;;11.90;99.90;;;;;;5013651;28;20025;-67
2022/05/02 05:09:09;;;;;;;15.07;6.78;;;11.90;99.90;;;;;;5014670;28;20037;-65
2022/05/02 05:11:59;;;;;;;12.05;6.07;;;11.80;99.90;;;;;;5032263;28;20109;-64
2022/05/02 05:17:55;;;;;;;9.25;6.03;;;12.10;99.90;;;;;;5035053;28;20041;-64
2022/05/02 05:20:32;;;;;;;9.73;5.55;;;12.20;99.90;;;;;;5035326;28;20029;-64
2022/05/02 05:23:05;;;;;;;15.93;6.03;;;12.30;99.90;;;;;;5017051;28;20025;-66
2022/05/02 05:26:09;;;;;;;9.57;5.78;;;12.30;99.90;;;;;;5017488;28;20025;-66
2022/05/02 05:28:55;;;;;;;11.35;5.53;;;12.40;99.90;;;;;;5017048;28;20099;-63
2022/05/02 05:31:49;;;;;;;7.45;5.50;;;12.40;99.90;;;;;;5035847;28;20463;-64
2022/05/02 05:34:37;;;;;;;11.23;5.90;;;12.30;99.90;;;;;;5017926;28;20025;-65
2022/05/02 05:37:31;;;;;;;8.13;6.25;;;12.20;99.90;;;;;;5035525;28;20033;-64
2022/05/02 05:40:06;;;;;;;12.23;7.18;;;12.20;99.90;;;;;;5017211;28;20202;-65
2022/05/02 05:42:38;;;;;;;9.18;5.72;;;12.20;99.90;;;;;;5017471;28;20026;-65
2022/05/02 05:45:23;;;;;;;;;;;12.30;99.90;;;;;;5034239;28;20022;-65
2022/05/02 05:48:13;;;;;;;9.18;5.78;;;12.30;99.90;;;;;;5015587;28;19978;-64
2022/05/02 05:50:48;;;;;;;8.27;5.90;;;12.40;99.90;;;;;;5033439;28;20116;-68
2022/05/02 05:53:52;;;;;;;8.70;6.00;;;12.40;99.90;;;;;;5034532;28;20343;-64
2022/05/02 05:56:40;;;;;;;11.52;6.78;;;12.40;99.90;;;;;;5034422;28;20063;-66
2022/05/02 05:59:08;;;;;;;8.85;6.25;;;12.20;99.90;;;;;;5034945;28;20044;-65
2022/05/02 06:02:05;;;;;;;13.40;6.22;;;12.40;99.90;;;;;;5016952;28;20460;-65
2022/05/02 06:04:33;;;;;;;11.63;5.88;;;12.40;99.90;;;;;;5033860;28;20021;-65
2022/05/02 06:07:00;;;;;;;12.32;5.75;;;13.10;99.90;;;;;;5013392;28;20200;-65
2022/05/02 06:09:30;;;;;;;7.43;5.88;;;13.40;99.90;;;;;;5014919;28;20045;-65
2022/05/02 06:11:58;;;;;;;6.60;5.28;;;13.40;99.90;;;;;;5014406;28;20099;-65
2022/05/02 06:14:33;;;;;;;11.82;5.40;;;13.60;99.90;;;;;;5014836;28;20025;-65
2022/05/02 06:19:46;;;;;;;11.05;5.25;;;13.80;99.90;;;;;;5032198;28;20080;-65
2022/05/02 06:22:16;;;;;;;9.05;6.03;;;13.80;99.90;;;;;;5032647;28;20056;-64
2022/05/02 06:24:45;;;;;;;10.85;5.45;;;13.70;99.90;;;;;;5029979;28;20459;-66
2022/05/02 06:27:11;;;;;;;7.00;5.18;;;13.70;99.90;;;;;;5014084;28;20180;-65
2022/05/02 06:29:40;;;;;;;8.80;5.75;;;13.80;99.90;;;;;;5030626;28;20088;-66
2022/05/02 06:32:10;;;;;;;9.23;5.28;;;13.80;99.90;;;;;;5031096;28;20083;-64
2022/05/02 06:34:37;;;;;;;11.43;5.47;;;14.20;99.90;;;;;;5030978;28;20033;-67
2022/05/02 06:37:16;;;;;;;7.60;4.72;;;14.40;99.90;;;;;;5040910;28;20037;-65
2022/05/02 06:40:06;;;;;;;9.00;5.28;;;15.30;99.90;;;;;;5031122;28;20029;-66
2022/05/02 06:42:42;;;;;;;6.93;5.70;;;15.90;99.90;;;;;;4994350;28;20026;-64
2022/05/02 06:45:26;;;;;;;9.30;5.45;;;15.80;99.90;;;;;;5010945;28;20212;-65
2022/05/02 06:48:07;;;;;;;8.90;5.10;;;15.60;99.90;;;;;;5016301;28;20041;-64
2022/05/02 06:50:36;;;;;;;8.77;6.30;;;15.70;99.90;;;;;;5029498;28;20429;-66
2022/05/02 06:53:22;;;;;;;9.07;5.43;;;15.50;99.90;;;;;;5030329;28;20052;-63
2022/05/02 06:56:01;;;;;;;10.23;5.85;;;15.60;99.90;;;;;;5039452;28;20121;-67
2022/05/02 06:58:44;;;;;;;12.40;6.32;;;15.40;99.90;;;;;;5022873;28;20036;-63
2022/05/02 07:01:49;;;;;;;11.75;5.65;;;15.20;99.90;;;;;;5043052;28;20056;-64
2022/05/02 07:04:29;;;;;;;10.18;5.65;;;15.30;99.90;;;;;;5010513;28;20037;-66
2022/05/02 07:07:12;;;;;;;12.15;6.07;;;15.20;99.90;;;;;;5039061;28;20487;-65
2022/05/02 07:09:46;;;;;;;13.30;6.70;;;15.30;99.90;;;;;;5029276;28;20038;-65
2022/05/02 07:12:19;;;;;;;14.35;6.28;;;15.40;99.90;;;;;;5009644;28;20159;-64
2022/05/02 07:15:03;;;;;;;12.18;6.55;;;15.30;99.90;;;;;;5030742;28;20387;-64
2022/05/02 07:18:00;;;;;;;10.23;5.68;;;15.10;99.90;;;;;;5031135;28;20061;-64
2022/05/02 07:20:33;;;;;;;10.38;5.43;;;15.30;99.90;;;;;;5035517;28;20141;-63
2022/05/02 07:23:10;;;;;;;10.63;5.40;;;15.50;99.90;;;;;;5029449;28;20029;-65
2022/05/02 07:25:43;;;;;;;12.23;6.43;;;15.80;99.90;;;;;;5041212;28;20398;-65
2022/05/02 07:28:22;;;;;;;10.57;5.25;;;16.00;99.90;;;;;;5051053;28;20032;-64
2022/05/02 07:30:49;;;;;;;9.13;5.35;;;16.10;99.90;;;;;;5050386;28;20486;-63
2022/05/02 07:33:15;;;;;;;10.27;6.05;;;16.10;99.90;;;;;;5033319;28;20029;-64
2022/05/02 07:35:43;;;;;;;8.23;5.28;;;15.90;99.90;;;;;;5051180;28;20416;-65
2022/05/02 07:38:13;;;;;;;6.93;5.53;;;16.00;99.90;;;;;;5036138;28;20534;-64
2022/05/02 07:41:22;;;;;;;7.72;4.82;;;15.90;99.90;;;;;;5041565;28;20106;-63
2022/05/02 07:43:33;;;;;;;7.22;4.95;;;15.70;99.90;;;;;;5043775;28;20177;-63
2022/05/02 07:46:01;;;;;;;8.23;5.20;;;15.80;99.90;;;;;;5050148;28;20037;-63
2022/05/02 07:48:28;;;;;;;6.45;5.05;;;15.70;99.90;;;;;;5044275;28;20063;-63
2022/05/02 07:50:55;;;;;;;9.50;5.30;;;15.80;99.90;;;;;;5046945;28;20021;-65
2022/05/02 07:53:22;;;;;;;7.82;5.47;;;15.70;99.90;;;;;;5045967;28;20039;-64
2022/05/02 07:55:49;;;;;;;11.25;4.53;;;15.70;99.90;;;;;;5048218;28;20029;-66
2022/05/02 07:58:17;;;;;;;8.25;5.55;;;15.80;99.90;;;;;;5032601;28;20037;-64
2022/05/02 08:00:43;;;;;;;14.70;7.35;;;16.00;99.90;;;;;;5032888;28;20492;-67
2022/05/02 08:03:08;;;;;;;18.92;6.85;;;16.20;99.90;;;;;;5032193;28;20029;-65
2022/05/02 08:05:39;;;;;;;10.85;6.00;;;16.40;99.90;;;;;;5050862;28;20031;-69
2022/05/02 08:08:18;;;;;;;5.90;5.13;;;16.70;99.90;;;;;;5032568;28;20601;-69
2022/05/02 08:10:56;;;;;;;15.07;6.60;;;17.10;99.90;;;;;;5050509;28;20505;-65
2022/05/02 08:13:55;;;;;;;7.10;5.50;;;17.20;99.90;;;;;;5028486;28;20029;-65
2022/05/02 08:16:24;;;;;;;11.88;5.07;;;17.30;99.90;;;;;;5011748;28;20021;-65
2022/05/02 08:19:08;;;;;;;8.70;5.45;;;17.10;99.90;;;;;;5022392;28;20050;-68
2022/05/02 08:21:42;;;;;;;9.07;5.63;;;17.10;99.90;;;;;;5042780;28;20045;-65
2022/05/02 08:27:17;;;;;;;8.88;5.53;;;17.30;99.70;;;;;;5009546;28;20446;-66
2022/05/02 08:30:17;;;;;;;6.82;4.65;;;17.40;99.10;;;;;;5010831;28;20083;-66
2022/05/02 08:33:05;;;;;;;7.95;4.93;;;17.40;99.20;;;;;;5010185;28;20040;-66
2022/05/02 08:35:47;;;;;;;10.55;6.15;;;17.30;99.00;;;;;;4993393;28;20056;-66
2022/05/02 08:38:22;;;;;;;6.63;5.20;;;17.30;99.30;;;;;;5010568;28;20392;-65
2022/05/02 08:41:36;;;;;;;7.88;4.90;;;17.30;99.50;;;;;;4992862;28;20419;-69
2022/05/02 08:44:32;;;;;;;7.78;4.95;;;17.40;99.40;;;;;;4922828;28;20044;-68
2022/05/02 08:47:16;;;;;;;8.27;4.85;;;17.30;99.60;;;;;;5010931;28;20033;-65
2022/05/02 08:49:50;;;;;;;6.50;4.68;;;17.50;99.90;;;;;;4996495;28;20045;-66
2022/05/02 08:52:38;;;;;;;7.95;5.25;;;17.60;99.90;;;;;;5014127;28;20022;-66
2022/05/02 08:55:32;;;;;;;8.90;5.10;;;17.70;99.80;;;;;;4995720;28;20125;-65
2022/05/02 08:58:26;;;;;;;8.02;5.68;;;17.80;99.40;;;;;;5013845;28;20021;-65
2022/05/02 09:01:11;;;;;;;6.97;4.80;;;17.80;99.30;;;;;;4996127;28;20030;-66
2022/05/02 09:04:05;;;;;;;13.63;7.40;;;18.20;98.70;;;;;;5014004;28;20387;-65
2022/05/02 09:06:48;;;;;;;10.77;6.22;;;18.20;98.70;;;;;;5013888;28;20034;-66
2022/05/02 09:09:51;;;;;;;6.25;5.13;;;18.30;98.50;;;;;;5013579;28;20022;-66
2022/05/02 09:12:49;;;;;;;11.35;5.88;;;18.30;98.20;;;;;;5014278;28;20033;-65
2022/05/02 09:15:53;;;;;;;8.75;4.95;;;18.00;98.60;;;;;;5013857;28;20018;-66
2022/05/02 09:18:37;;;;;;;9.77;5.05;;;18.10;98.60;;;;;;4915004;29;20068;-65
2022/05/02 09:21:14;;;;;;;7.63;5.28;;;18.40;98.00;;;;;;5004960;28;20104;-65
2022/05/02 09:24:23;;;;;;;10.13;5.70;;;18.50;98.10;;;;;;5014006;28;20099;-66
2022/05/02 09:27:21;;;;;;;8.57;5.40;;;18.60;98.10;;;;;;4996037;28;20033;-66
2022/05/02 09:30:23;;;;;;;9.02;5.28;;;18.60;97.50;;;;;;4996233;28;20375;-65
2022/05/02 09:33:39;;;;;;;7.22;4.50;;;18.80;97.30;;;;;;5013708;28;20041;-65
2022/05/02 09:36:14;;;;;;;8.05;5.40;;;19.10;97.30;;;;;;4914168;29;20111;-65
2022/05/02 09:38:53;;;;;;;9.77;5.10;;;19.40;97.10;;;;;;4984666;28;20459;-67
2022/05/02 09:41:24;;;;;;;10.25;5.00;;;19.70;96.80;;;;;;4995709;28;20355;-65
2022/05/02 09:50:10;;;;;;;12.73;5.45;;;20.10;95.50;;;;;;5013175;28;20029;-65
2022/05/02 09:53:03;;;;;;;11.02;5.55;;;20.40;95.60;;;;;;5013316;28;20018;-65
2022/05/02 09:58:34;;;;;;;7.30;4.72;;;20.90;94.90;;;;;;5012196;28;20557;-66
2022/05/02 10:01:22;;;;;;;8.05;4.43;;;21.20;93.50;;;;;;5012708;28;20042;-65
2022/05/02 10:04:27;;;;;;;5.65;4.00;;;20.70;93.10;;;;;;5013280;28;20029;-65
2022/05/02 10:06:55;;;;;;;4.78;4.13;;;20.90;92.90;;;;;;5012830;28;20113;-71
2022/05/02 10:10:01;;;;;;;7.78;4.18;;;20.80;93.30;;;;;;4995735;28;20041;-64
2022/05/02 10:12:47;;;;;;;6.53;4.30;;;21.00;93.40;;;;;;4914245;29;20168;-64
2022/05/02 10:15:32;;;;;;;7.38;4.70;;;21.50;93.60;;;;;;4913763;29;20367;-65
2022/05/02 10:18:27;;;;;;;6.90;3.60;;;22.30;92.10;;;;;;4913907;29;20036;-66
2022/05/02 10:20:56;;;;;;;6.13;3.50;;;23.30;91.10;;;;;;4913861;29;20052;-70
2022/05/02 10:23:52;;;;;;;8.45;4.28;;;23.60;88.00;;;;;;4914029;29;20175;-67
2022/05/02 10:26:32;;;;;;;8.40;4.50;;;23.60;87.20;;;;;;4913306;29;20475;-65
2022/05/02 10:29:36;;;;;;;5.90;4.32;;;23.70;82.50;;;;;;4913766;29;20119;-67
2022/05/02 10:32:10;;;;;;;4.30;3.90;;;22.40;85.50;;;;;;4913142;29;20402;-65
2022/05/02 10:34:37;;;;;;;12.05;5.20;;;22.80;85.80;;;;;;4913804;29;20446;-65
2022/05/02 10:37:07;;;;;;;4.88;4.22;;;23.50;85.30;;;;;;4913705;29;20044;-66
2022/05/02 10:39:44;;;;;;;11.23;5.68;;;23.90;83.70;;;;;;4913905;29;20039;-65
2022/05/02 10:42:13;;;;;;;8.45;4.63;;;23.80;82.00;;;;;;4920012;28;20032;-66
2022/05/02 10:44:49;;;;;;;7.00;4.38;;;24.10;81.90;;;;;;4993486;28;20046;-67
2022/05/02 10:47:19;;;;;;;5.50;3.92;;;24.30;79.80;;;;;;4992578;28;20243;-67
2022/05/02 10:50:12;;;;;;;8.10;4.95;;;24.10;79.40;;;;;;4992036;28;20035;-67
2022/05/02 10:52:46;;;;;;;7.32;4.20;;;24.10;77.50;;;;;;4993337;28;20125;-65
2022/05/02 10:55:26;;;;;;;8.43;4.38;;;23.80;77.80;;;;;;4991809;28;20105;-66
2022/05/02 10:57:54;;;;;;;8.73;4.70;;;23.60;79.00;;;;;;4992761;28;20042;-65
2022/05/02 11:00:21;;;;;;;10.85;5.00;;;23.60;80.20;;;;;;4990710;28;20031;-66
2022/05/02 11:03:13;;;;;;;4.85;4.30;;;23.90;77.00;;;;;;4990882;28;20042;-65
2022/05/02 11:05:52;;;;;;;5.22;3.88;;;23.90;77.30;;;;;;4992788;28;20041;-66
2022/05/02 11:08:53;;;;;;;6.53;4.25;;;24.10;79.10;;;;;;4991939;28;20157;-66
2022/05/02 11:11:27;;;;;;;15.57;4.90;;;24.40;79.30;;;;;;4977917;28;20084;-66
2022/05/02 11:13:58;;;;;;;7.30;4.70;;;24.60;79.10;;;;;;4992484;28;20041;-68
2022/05/02 11:16:41;;;;;;;5.00;4.53;;;24.20;78.80;;;;;;4990543;28;20049;-67
2022/05/02 11:22:30;;;;;;;6.30;4.35;;;25.60;78.00;;;;;;5007828;28;20056;-65
2022/05/02 11:25:12;;;;;;;6.93;4.80;;;25.70;77.40;;;;;;5011314;28;20033;-65
2022/05/02 11:27:50;;;;;;;6.38;4.47;;;25.00;77.20;;;;;;5011466;28;20034;-66
2022/05/02 11:30:28;;;;;;;6.43;3.83;;;25.30;78.00;;;;;;5011238;28;20029;-66
2022/05/02 11:33:25;;;;;;;4.82;4.35;;;26.00;76.10;;;;;;5011979;28;20143;-66
2022/05/02 11:36:00;;;;;;;8.57;3.92;;;25.20;75.10;;;;;;5011436;28;20022;-67
2022/05/02 11:38:36;;;;;;;5.25;3.97;;;25.00;75.40;;;;;;4993461;28;20033;-66
2022/05/02 11:41:19;;;;;;;6.07;4.43;;;24.90;76.00;;;;;;4993217;28;20030;-66
2022/05/02 11:43:46;;;;;;;7.57;4.20;;;25.30;76.90;;;;;;5011666;28;20037;-67
2022/05/02 11:46:26;;;;;;;10.43;3.78;;;25.90;76.20;;;;;;5011001;28;20053;-66
2022/05/02 11:49:16;;;;;;;7.88;4.82;;;26.10;75.10;;;;;;5011544;28;20037;-67
2022/05/02 11:51:47;;;;;;;4.68;3.90;;;25.40;75.50;;;;;;5011398;28;20107;-67
2022/05/02 11:54:27;;;;;;;9.98;4.53;;;25.20;76.90;;;;;;5010922;28;20053;-68
2022/05/02 11:57:32;;;;;;;6.57;4.25;;;26.10;76.40;;;;;;4993743;28;20026;-75
2022/05/02 12:00:15;;;;;;;5.50;3.80;;;25.90;74.70;;;;;;4993944;28;20025;-76
2022/05/02 12:02:42;;;;;;;16.40;4.75;;;25.40;74.30;;;;;;5011219;28;20397;-74
2022/05/02 12:05:26;;;;;;;5.32;4.05;;;25.10;76.30;;;;;;5010870;28;20087;-76
2022/05/02 12:07:57;;;;;;;6.35;4.18;;;25.20;76.00;;;;;;4994186;28;20030;-75
2022/05/02 12:10:41;;;;;;;6.78;4.00;;;25.10;76.40;;;;;;5011158;28;20049;-75
2022/05/02 12:13:12;;;;;;;7.20;3.97;;;25.20;76.40;;;;;;5010995;28;20030;-75
2022/05/02 12:16:14;;;;;;;5.70;3.70;;;25.60;76.10;;;;;;5011300;28;20025;-75
2022/05/02 12:18:49;;;;;;;7.63;4.40;;;25.70;75.40;;;;;;4896403;29;20032;-76
2022/05/02 12:21:37;;;;;;;5.20;3.70;;;25.50;75.10;;;;;;4996212;28;20095;-76
2022/05/02 12:24:04;;;;;;;5.28;3.83;;;25.70;75.80;;;;;;5010495;28;20033;-74
2022/05/02 12:26:33;;;;;;;7.15;4.32;;;26.10;75.10;;;;;;5011169;28;20076;-76
2022/05/02 12:29:14;;;;;;;4.75;3.67;;;26.10;74.30;;;;;;5010820;28;20529;-76
2022/05/02 12:31:43;;;;;;;8.40;3.90;;;26.10;75.10;;;;;;5010630;28;20030;-76
2022/05/02 12:34:11;;;;;;;9.02;4.07;;;26.10;72.20;;;;;;5010628;28;20121;-76
2022/05/02 12:36:45;;;;;;;5.70;3.58;;;26.20;72.20;;;;;;5011485;28;20034;-75
2022/05/02 12:39:51;;;;;;;5.63;3.60;;;26.40;70.90;;;;;;4992726;28;20026;-75
2022/05/02 12:42:23;;;;;;;4.07;3.53;;;26.70;71.00;;;;;;4911627;29;20044;-77
2022/05/02 12:45:02;;;;;;;7.63;3.30;;;26.40;70.10;;;;;;4912360;29;20135;-76
2022/05/02 12:47:39;;;;;;;3.97;3.15;;;26.20;70.00;;;;;;4896447;29;20108;-74
2022/05/02 12:50:07;;;;;;;6.35;3.20;;;26.30;70.70;;;;;;4895604;29;20391;-76
2022/05/02 12:52:41;;;;;;;6.78;4.00;;;26.10;70.30;;;;;;4911646;29;20168;-75
2022/05/02 12:55:09;;;;;;;5.10;3.53;;;25.90;71.40;;;;;;4911462;29;20036;-71
2022/05/02 13:00:40;;;;;;;5.70;3.15;;;26.00;70.70;;;;;;4912287;29;20035;-76
2022/05/02 13:03:15;;;;;;;8.90;3.55;;;25.90;70.40;;;;;;4911560;29;20044;-75
2022/05/02 13:05:53;;;;;;;5.00;3.60;;;25.50;70.30;;;;;;4912067;29;20520;-76
2022/05/02 13:08:31;;;;;;;5.30;3.92;;;25.30;70.90;;;;;;4911401;29;20032;-77
2022/05/02 13:11:04;;;;;;;6.80;3.88;;;25.60;70.40;;;;;;4911854;29;20139;-75
2022/05/02 13:14:06;;;;;;;3.80;3.40;;;25.50;70.50;;;;;;4969317;28;20038;-77
2022/05/02 13:16:40;;;;;;;5.68;3.33;;;25.30;69.40;;;;;;4895646;29;20170;-76
2022/05/02 13:19:07;;;;;;;5.90;3.28;;;25.00;70.40;;;;;;4995681;28;20045;-75
2022/05/02 13:21:33;;;;;;;4.28;2.75;;;25.00;70.80;;;;;;4992601;28;20078;-75
2022/05/02 13:24:08;;;;;;;6.35;4.28;;;24.90;71.00;;;;;;4992745;28;20428;-75
2022/05/02 13:26:33;;;;;;;7.03;4.10;;;24.60;69.90;;;;;;4992561;28;20030;-75
2022/05/02 13:29:13;;;;;;;8.75;3.53;;;24.20;70.70;;;;;;5009921;28;20467;-76
2022/05/02 13:32:03;;;;;;;7.00;3.40;;;23.90;71.50;;;;;;5010166;28;20026;-75
2022/05/02 13:34:54;;;;;;;6.47;3.80;;;23.50;71.50;;;;;;4970002;28;20380;-75
2022/05/02 13:37:37;;;;;;;9.65;3.33;;;23.20;70.50;;;;;;5012896;28;20120;-75
2022/05/02 13:40:09;;;;;;;7.07;3.13;;;23.10;71.90;;;;;;4996065;28;20121;-75
2022/05/02 13:43:13;;;;;;;5.80;3.85;;;23.20;72.40;;;;;;5014246;28;20029;-76
2022/05/02 13:45:55;;;;;;;6.20;3.65;;;23.30;71.80;;;;;;5013642;28;20148;-76
2022/05/02 13:48:26;;;;;;;;;;;23.10;72.50;;;;;;5013054;28;20030;-76
2022/05/02 13:51:11;;;;;;;4.25;3.60;;;23.20;72.80;;;;;;5013971;28;20310;-76